Forbestown, California
Current Conditions -  °F | °C
As of 8:46 PM on Saturday 22 Nov 2014 (Local Time) from KOVE Reporting Station
Haze Haze  
Wind Chill: 51°   Ceiling: Unl
Heat Index: 51°   Visibility: 3mi
Dew Point: 49°   Wind: 3mph
Humidity: 92%   Direction: 40°NE
Pressure: 30.24"   Gusts: NA
Location:  39.52°N, 121.27°W
Report Text: KOVE 230446Z AUTO 04003KT 3SM BR CLR 11/09 A3024 RMK AO2 T01060094
Loading
Personal Weather Stations






























Interactive Weather Map New forecast layout! Learn more

10-Day Weather Forecast

Advertisements
Track Severe Weather on mobile